Time;durP1;ratioP1;P1;durP2;ratioP2;P2;SDS_P1;SDS_P2;PMS_P1;PMS_P2;Temp;Humidity;BMP_temperature;BMP_pressure;BME280_temperature;BME280_humidity;BME280_pressure;Samples;Min_cycle;Max_cycle;Signal;HPM_P1;HPM_P2
2023/03/16 00:02:13;;;;;;;;;;;;;;;7.07;100.00;98688.63;5112321;28;870;-66
2023/03/16 00:04:39;;;;;;;;;;;;;;;7.09;100.00;98697.25;5112385;28;835;-64
2023/03/16 00:07:08;;;;;;;;;;;;;;;7.12;100.00;98693.69;5112340;28;858;-64
2023/03/16 00:09:35;;;;;;;;;;;;;;;7.15;100.00;98687.38;5112257;28;1366;-65
2023/03/16 00:12:02;;;;;;;;;;;;;;;7.22;100.00;98689.28;5112141;28;1910;-64
2023/03/16 00:14:31;;;;;;;;;;;;;;;7.29;100.00;98691.97;5112295;28;1576;-65
2023/03/16 00:16:57;;;;;;;;;;;;;;;7.33;100.00;98691.94;5112132;28;876;-66
2023/03/16 00:19:24;;;;;;;;;;;;;;;7.21;100.00;98690.50;5112169;28;835;-66
2023/03/16 00:21:51;;;;;;;;;;;;;;;7.04;100.00;98683.16;5112060;28;1037;-66
2023/03/16 00:24:18;;;;;;;;;;;;;;;6.94;100.00;98677.34;5112012;28;819;-65
2023/03/16 00:26:44;;;;;;;;;;;;;;;6.93;100.00;98673.06;5112044;28;886;-64
2023/03/16 00:29:11;;;;;;;;;;;;;;;6.96;100.00;98668.72;5112238;28;895;-64
2023/03/16 00:31:38;;;;;;;;;;;;;;;7.02;100.00;98675.34;5111863;28;1989;-64
2023/03/16 00:34:05;;;;;;;;;;;;;;;7.06;100.00;98672.53;5111942;28;839;-64
2023/03/16 00:36:32;;;;;;;;;;;;;;;7.11;100.00;98678.41;5111935;28;883;-65
2023/03/16 00:38:59;;;;;;;;;;;;;;;7.29;100.00;98675.47;5111865;28;895;-67
2023/03/16 00:41:25;;;;;;;;;;;;;;;7.45;100.00;98669.44;5111876;28;898;-64
2023/03/16 00:43:52;;;;;;;;;;;;;;;7.47;100.00;98669.81;5112150;28;902;-64
2023/03/16 00:46:19;;;;;;;;;;;;;;;7.39;100.00;98682.06;5111821;28;815;-64
2023/03/16 00:48:46;;;;;;;;;;;;;;;7.13;100.00;98678.00;5110484;28;1245;-64
2023/03/16 00:51:14;;;;;;;;;;;;;;;6.93;100.00;98675.00;5111680;28;1897;-66
2023/03/16 00:53:42;;;;;;;;;;;;;;;6.81;100.00;98672.78;5111929;28;883;-66
2023/03/16 00:56:09;;;;;;;;;;;;;;;6.70;100.00;98678.31;5111678;28;1059;-66
2023/03/16 00:58:37;;;;;;;;;;;;;;;6.60;100.00;98685.47;5111774;28;811;-64
2023/03/16 01:01:04;;;;;;;;;;;;;;;6.55;100.00;98677.66;5111670;28;863;-62
2023/03/16 01:03:31;;;;;;;;;;;;;;;6.57;100.00;98674.50;5115011;28;843;-63
2023/03/16 01:06:02;;;;;;;;;;;;;;;6.49;100.00;98669.06;5115933;27;858;-62
2023/03/16 01:08:29;;;;;;;;;;;;;;;6.35;100.00;98671.91;5116437;28;965;-62
2023/03/16 01:10:56;;;;;;;;;;;;;;;6.41;100.00;98664.81;5115523;28;1902;-62
2023/03/16 01:13:22;;;;;;;;;;;;;;;6.62;100.00;98658.38;5115699;28;826;-62
2023/03/16 01:15:52;;;;;;;;;;;;;;;6.84;100.00;98658.22;5115957;28;847;-63
2023/03/16 01:18:19;;;;;;;;;;;;;;;6.95;100.00;98645.94;5115854;28;827;-63
2023/03/16 01:20:49;;;;;;;;;;;;;;;7.02;100.00;98647.06;5115672;28;807;-61
2023/03/16 01:23:17;;;;;;;;;;;;;;;7.09;100.00;98653.28;5115314;28;897;-62
2023/03/16 01:25:51;;;;;;;;;;;;;;;7.16;100.00;98660.69;5115416;28;866;-62
2023/03/16 01:28:23;;;;;;;;;;;;;;;6.82;100.00;98688.84;5115363;28;914;-63
2023/03/16 01:30:56;;;;;;;;;;;;;;;6.39;100.00;98694.63;5115212;27;1909;-63
2023/03/16 01:33:24;;;;;;;;;;;;;;;6.21;100.00;98702.97;5115310;28;877;-62
2023/03/16 01:35:54;;;;;;;;;;;;;;;6.13;100.00;98709.66;5115179;28;855;-62
2023/03/16 01:38:21;;;;;;;;;;;;;;;6.05;100.00;98716.34;5115192;28;873;-62
2023/03/16 01:40:50;;;;;;;;;;;;;;;5.99;100.00;98726.16;5115126;28;827;-63
2023/03/16 01:43:18;;;;;;;;;;;;;;;5.94;100.00;98721.84;5115049;27;854;-63
2023/03/16 01:46:02;;;;;;;;;;;;;;;5.85;100.00;98726.97;5115013;28;823;-61
2023/03/16 01:48:36;;;;;;;;;;;;;;;5.82;100.00;98736.75;5114875;28;820;-60
2023/03/16 01:51:04;;;;;;;;;;;;;;;5.88;100.00;98740.66;5114833;28;1918;-61
2023/03/16 01:53:32;;;;;;;;;;;;;;;5.91;100.00;98741.81;5114745;28;881;-60
2023/03/16 01:56:00;;;;;;;;;;;;;;;5.95;100.00;98739.88;5114771;28;823;-61
2023/03/16 01:58:27;;;;;;;;;;;;;;;6.04;100.00;98742.19;5114770;28;859;-61
2023/03/16 02:00:56;;;;;;;;;;;;;;;6.13;100.00;98740.59;5114679;28;858;-61
2023/03/16 02:03:24;;;;;;;;;;;;;;;6.24;100.00;98746.03;5114795;28;838;-62
2023/03/16 02:06:14;;;;;;;;;;;;;;;6.34;100.00;98749.94;5114582;28;890;-62
2023/03/16 02:08:42;;;;;;;;;;;;;;;6.44;100.00;98748.31;5103873;28;1526;-61
2023/03/16 02:11:09;;;;;;;;;;;;;;;6.53;100.00;98740.44;5114472;28;1909;-61
2023/03/16 02:13:35;;;;;;;;;;;;;;;6.63;100.00;98741.53;5114017;28;791;-61
2023/03/16 02:16:06;;;;;;;;;;;;;;;6.68;100.00;98750.13;5113525;28;1500;-62
2023/03/16 02:18:33;;;;;;;;;;;;;;;6.76;100.00;98750.84;5114262;28;873;-62
2023/03/16 02:21:18;;;;;;;;;;;;;;;6.79;100.00;98757.53;5114317;28;819;-62
2023/03/16 02:23:45;;;;;;;;;;;;;;;6.72;100.00;98759.13;5114921;28;886;-61
2023/03/16 02:26:30;;;;;;;;;;;;;;;6.67;100.00;98761.50;5114480;28;871;-63
2023/03/16 02:29:03;;;;;;;;;;;;;;;6.62;100.00;98759.22;5114159;28;851;-62
2023/03/16 02:31:30;;;;;;;;;;;;;;;6.60;100.00;98767.06;5114121;27;1914;-61
2023/03/16 02:33:57;;;;;;;;;;;;;;;6.59;100.00;98757.25;5114068;28;847;-62
2023/03/16 02:36:24;;;;;;;;;;;;;;;6.61;100.00;98761.16;5113998;28;819;-62
2023/03/16 02:38:51;;;;;;;;;;;;;;;6.64;100.00;98760.38;5114212;28;819;-62
2023/03/16 02:41:19;;;;;;;;;;;;;;;6.66;100.00;98760.75;5113898;28;807;-63
2023/03/16 02:43:54;;;;;;;;;;;;;;;6.66;100.00;98751.72;5113900;28;890;-62
2023/03/16 02:46:22;;;;;;;;;;;;;;;6.66;100.00;98757.22;5113915;28;842;-62
2023/03/16 02:49:10;;;;;;;;;;;;;;;6.66;100.00;98751.72;5113758;28;863;-62
2023/03/16 02:51:36;;;;;;;;;;;;;;;6.67;100.00;98756.81;5113563;28;1898;-61
2023/03/16 02:54:03;;;;;;;;;;;;;;;6.67;100.00;98751.31;5113657;28;823;-61
2023/03/16 02:56:30;;;;;;;;;;;;;;;6.67;100.00;98754.06;5113624;28;843;-62
2023/03/16 02:58:56;;;;;;;;;;;;;;;6.66;100.00;98758.00;5113578;28;798;-61
2023/03/16 03:01:23;;;;;;;;;;;;;;;6.67;100.00;98756.03;5113574;28;885;-61
2023/03/16 03:03:49;;;;;;;;;;;;;;;6.67;100.00;98761.50;5113458;28;875;-61
2023/03/16 03:06:16;;;;;;;;;;;;;;;6.65;100.00;98763.88;5113490;28;858;-61
2023/03/16 03:08:42;;;;;;;;;;;;;;;6.62;100.00;98754.50;5113772;28;935;-61
2023/03/16 03:11:09;;;;;;;;;;;;;;;6.60;100.00;98758.81;5113065;28;1909;-61
2023/03/16 03:13:38;;;;;;;;;;;;;;;6.55;100.00;98757.28;5113301;28;850;-61
2023/03/16 03:16:04;;;;;;;;;;;;;;;6.52;100.00;98760.81;5113328;28;1056;-61
2023/03/16 03:18:33;;;;;;;;;;;;;;;6.51;100.00;98764.75;5113149;28;815;-61
2023/03/16 03:20:59;;;;;;;;;;;;;;;6.50;100.00;98761.22;5113137;28;915;-61
2023/03/16 03:23:26;;;;;;;;;;;;;;;6.47;100.00;98773.00;5113066;28;827;-62
2023/03/16 03:25:56;;;;;;;;;;;;;;;6.44;100.00;98760.06;5112851;28;815;-62
2023/03/16 03:28:22;;;;;;;;;;;;;;;6.42;100.00;98762.44;5113024;28;870;-62
2023/03/16 03:30:50;;;;;;;;;;;;;;;6.38;100.00;98761.69;5112835;28;1957;-62
2023/03/16 03:33:16;;;;;;;;;;;;;;;6.49;100.00;98769.88;5112907;28;843;-61
2023/03/16 03:35:43;;;;;;;;;;;;;;;6.54;100.00;98764.72;5113099;28;844;-61
2023/03/16 03:38:10;;;;;;;;;;;;;;;6.57;100.00;98765.88;5112839;28;910;-61
2023/03/16 03:40:36;;;;;;;;;;;;;;;6.68;100.00;98769.38;5112717;28;917;-61
2023/03/16 03:43:04;;;;;;;;;;;;;;;6.76;100.00;98772.81;5112761;28;830;-63
2023/03/16 03:45:31;;;;;;;;;;;;;;;6.74;100.00;98765.00;5112688;28;917;-63
2023/03/16 03:47:58;;;;;;;;;;;;;;;6.69;100.00;98768.16;5112846;28;886;-62
2023/03/16 03:50:24;;;;;;;;;;;;;;;6.71;100.00;98771.28;5112669;28;944;-62
2023/03/16 03:52:51;;;;;;;;;;;;;;;6.73;100.00;98777.16;5112381;28;1886;-63
2023/03/16 03:55:18;;;;;;;;;;;;;;;6.79;100.00;98780.28;5112505;28;827;-62
2023/03/16 03:57:45;;;;;;;;;;;;;;;6.82;100.00;98781.44;5112415;28;807;-62
2023/03/16 04:00:12;;;;;;;;;;;;;;;6.89;100.00;98784.13;5112383;28;862;-62
2023/03/16 04:02:39;;;;;;;;;;;;;;;7.02;100.00;98777.00;5112406;28;835;-63
2023/03/16 04:05:07;;;;;;;;;;;;;;;7.09;100.00;98779.69;5112337;28;883;-63
2023/03/16 04:07:33;;;;;;;;;;;;;;;7.13;100.00;98777.69;5112292;28;854;-64
2023/03/16 04:10:00;;;;;;;;;;;;;;;7.13;100.00;98779.66;5112263;28;1197;-63
2023/03/16 04:12:26;;;;;;;;;;;;;;;7.09;100.00;98776.94;5112153;28;1973;-63
2023/03/16 04:14:53;;;;;;;;;;;;;;;7.06;100.00;98775.00;5112525;28;879;-63
2023/03/16 04:17:20;;;;;;;;;;;;;;;7.08;100.00;98774.59;5112373;28;899;-63
2023/03/16 04:19:47;;;;;;;;;;;;;;;7.09;100.00;98781.66;5112173;28;866;-62
2023/03/16 04:22:13;;;;;;;;;;;;;;;6.98;100.00;98783.69;5111943;28;800;-62
2023/03/16 04:24:42;;;;;;;;;;;;;;;7.02;100.00;98788.00;5112099;28;911;-63
2023/03/16 04:27:10;;;;;;;;;;;;;;;6.97;100.00;98785.66;5112017;28;898;-63
2023/03/16 04:29:38;;;;;;;;;;;;;;;6.93;100.00;98782.94;5112035;28;885;-62
2023/03/16 04:32:06;;;;;;;;;;;;;;;6.93;100.00;98784.88;5111952;28;1949;-63
2023/03/16 04:34:33;;;;;;;;;;;;;;;6.97;100.00;98782.13;5112010;28;882;-63
2023/03/16 04:37:01;;;;;;;;;;;;;;;7.00;100.00;98786.81;5111506;28;831;-62
2023/03/16 04:39:28;;;;;;;;;;;;;;;6.95;100.00;98786.03;5112120;28;839;-62
2023/03/16 04:41:54;;;;;;;;;;;;;;;6.94;100.00;98780.97;5111929;28;807;-62
2023/03/16 04:44:20;;;;;;;;;;;;;;;6.98;100.00;98787.22;5111830;28;904;-63
2023/03/16 04:46:47;;;;;;;;;;;;;;;6.99;100.00;98780.53;5111867;28;819;-62
2023/03/16 04:49:14;;;;;;;;;;;;;;;7.07;100.00;98782.06;5111805;28;900;-63
2023/03/16 04:51:41;;;;;;;;;;;;;;;7.26;100.00;98788.97;5111663;28;1886;-63
2023/03/16 04:54:07;;;;;;;;;;;;;;;7.36;100.00;98790.88;5111779;28;917;-63
2023/03/16 04:56:34;;;;;;;;;;;;;;;7.41;100.00;98789.66;5111861;28;910;-64
2023/03/16 04:59:01;;;;;;;;;;;;;;;7.42;100.00;98787.66;5111728;28;862;-64
2023/03/16 05:01:27;;;;;;;;;;;;;;;7.46;100.00;98796.69;5111746;28;871;-64
2023/03/16 05:03:54;;;;;;;;;;;;;;;7.54;100.00;98798.97;5111759;28;877;-65
2023/03/16 05:06:21;;;;;;;;;;;;;;;7.53;100.00;98800.16;5110317;28;1394;-64
2023/03/16 05:08:47;;;;;;;;;;;;;;;7.51;100.00;98805.28;5111860;28;947;-64
2023/03/16 05:11:14;;;;;;;;;;;;;;;7.59;100.00;98807.97;5111346;28;1898;-65
2023/03/16 05:13:40;;;;;;;;;;;;;;;7.60;100.00;98806.78;5111719;28;878;-65
2023/03/16 05:16:07;;;;;;;;;;;;;;;7.61;100.00;98800.84;5111595;28;830;-64
2023/03/16 05:18:33;;;;;;;;;;;;;;;7.63;100.00;98816.97;5111566;28;885;-63
2023/03/16 05:21:00;;;;;;;;;;;;;;;7.68;100.00;98817.31;5111688;28;882;-65
2023/03/16 05:23:27;;;;;;;;;;;;;;;7.70;100.00;98817.69;5111539;28;840;-65
2023/03/16 05:25:56;;;;;;;;;;;;;;;7.74;100.00;98831.38;5111492;28;914;-65
2023/03/16 05:28:23;;;;;;;;;;;;;;;7.75;100.00;98839.25;5111459;28;870;-64
2023/03/16 05:30:50;;;;;;;;;;;;;;;7.76;100.00;98835.28;5111366;28;1971;-66
2023/03/16 05:33:16;;;;;;;;;;;;;;;7.75;100.00;98842.00;5111696;28;894;-65
2023/03/16 05:35:42;;;;;;;;;;;;;;;7.69;100.00;98840.09;5111433;28;882;-64
2023/03/16 05:38:09;;;;;;;;;;;;;;;7.51;100.00;98846.53;5111394;28;819;-65
2023/03/16 05:40:36;;;;;;;;;;;;;;;7.14;100.00;98847.94;5111365;28;819;-67
2023/03/16 05:43:03;;;;;;;;;;;;;;;6.77;100.00;98856.81;5111346;28;839;-66
2023/03/16 05:45:36;;;;;;;;;;;;;;;6.56;100.00;98846.69;5111278;28;862;-65
2023/03/16 05:48:04;;;;;;;;;;;;;;;6.38;100.00;98848.72;5111291;28;866;-65
2023/03/16 05:50:31;;;;;;;;;;;;;;;6.19;100.00;98850.75;5113967;28;956;-64
2023/03/16 05:52:57;;;;;;;;;;;;;;;6.05;100.00;98851.53;5114816;28;1893;-62
2023/03/16 05:55:24;;;;;;;;;;;;;;;5.93;100.00;98862.88;5114782;28;850;-62
2023/03/16 05:57:50;;;;;;;;;;;;;;;5.90;100.00;98867.19;5114998;28;807;-61
2023/03/16 06:00:17;;;;;;;;;;;;;;;5.84;100.00;98871.53;5114711;28;894;-61
2023/03/16 06:02:48;;;;;;;;;;;;;;;5.86;100.00;98871.91;5114710;28;823;-61
2023/03/16 06:05:15;;;;;;;;;;;;;;;5.84;100.00;98879.75;5114701;28;831;-61
2023/03/16 06:07:42;;;;;;;;;;;;;;;5.84;100.00;98874.25;5114489;28;1136;-62
2023/03/16 06:10:10;;;;;;;;;;;;;;;5.84;100.00;98868.78;5114356;28;1176;-61
2023/03/16 06:12:37;;;;;;;;;;;;;;;5.82;100.00;98876.59;5113134;28;1917;-61
2023/03/16 06:15:09;;;;;;;;;;;;;;;5.81;100.00;98872.31;5114467;28;870;-61
2023/03/16 06:17:36;;;;;;;;;;;;;;;5.83;100.00;98869.97;5114412;28;850;-61
2023/03/16 06:20:09;;;;;;;;;;;;;;;5.85;100.00;98877.81;5114206;28;862;-62
2023/03/16 06:22:37;;;;;;;;;;;;;;;5.85;100.00;98886.81;5114379;28;906;-61
2023/03/16 06:25:04;;;;;;;;;;;;;;;5.86;100.00;98891.09;5114427;28;807;-62
2023/03/16 06:27:31;;;;;;;;;;;;;;;5.89;100.00;98895.81;5114114;28;827;-62
2023/03/16 06:29:58;;;;;;;;;;;;;;;5.92;100.00;98891.50;5114531;28;803;-62
2023/03/16 06:32:24;;;;;;;;;;;;;;;6.01;100.00;98897.41;5114044;28;1894;-60
2023/03/16 06:34:50;;;;;;;;;;;;;;;6.08;100.00;98913.06;5114035;28;863;-61
2023/03/16 06:37:17;;;;;;;;;;;;;;;6.19;100.00;98908.38;5114205;28;823;-62
2023/03/16 06:39:43;;;;;;;;;;;;;;;6.28;100.00;98922.44;5114293;28;886;-62
2023/03/16 06:42:10;;;;;;;;;;;;;;;6.32;100.00;98928.72;5113923;27;993;-62
2023/03/16 06:44:37;;;;;;;;;;;;;;;6.32;100.00;98925.97;5113912;28;827;-62
2023/03/16 06:47:04;;;;;;;;;;;;;;;6.38;100.00;98925.56;5113852;28;854;-62
2023/03/16 06:49:31;;;;;;;;;;;;;;;6.46;100.00;98938.09;5113634;28;818;-61
2023/03/16 06:51:57;;;;;;;;;;;;;;;6.43;100.00;98953.41;5113930;28;1963;-61
2023/03/16 06:54:24;;;;;;;;;;;;;;;6.47;100.00;98943.19;5113620;28;867;-62
2023/03/16 06:56:51;;;;;;;;;;;;;;;6.53;100.00;98927.13;5113926;28;870;-62
2023/03/16 06:59:17;;;;;;;;;;;;;;;6.64;100.00;98951.78;5113609;28;871;-62
2023/03/16 07:01:44;;;;;;;;;;;;;;;6.68;100.00;98956.09;5113136;28;898;-62
2023/03/16 07:04:11;;;;;;;;;;;;;;;6.69;100.00;98943.91;5113476;28;1003;-62
2023/03/16 07:06:38;;;;;;;;;;;;;;;6.65;100.00;98939.63;5112124;28;1168;-61
2023/03/16 07:09:04;;;;;;;;;;;;;;;6.57;100.00;98962.78;5112244;28;1686;-61
2023/03/16 07:11:31;;;;;;;;;;;;;;;6.56;100.00;98959.25;5112930;28;1897;-61
2023/03/16 07:13:58;;;;;;;;;;;;;;;6.50;100.00;98967.09;5113280;28;857;-62
2023/03/16 07:16:25;;;;;;;;;;;;;;;6.41;100.00;98963.22;5113262;28;866;-62
2023/03/16 07:18:51;;;;;;;;;;;;;;;6.31;100.00;98971.03;5113184;28;878;-60
2023/03/16 07:21:18;;;;;;;;;;;;;;;6.23;100.00;98979.69;5113104;28;819;-61
2023/03/16 07:23:45;;;;;;;;;;;;;;;6.16;100.00;98977.72;5113184;28;819;-60
2023/03/16 07:26:11;;;;;;;;;;;;;;;6.11;100.00;98989.09;5112987;28;1135;-61
2023/03/16 07:28:38;;;;;;;;;;;;;;;6.07;100.00;98972.63;5112971;28;862;-61
2023/03/16 07:31:05;;;;;;;;;;;;;;;6.05;100.00;98977.72;5112919;28;1964;-62
2023/03/16 07:33:33;;;;;;;;;;;;;;;6.06;100.00;98982.06;5112997;28;846;-61
2023/03/16 07:36:03;;;;;;;;;;;;;;;6.07;100.00;98986.34;5112887;28;855;-61
2023/03/16 07:38:31;;;;;;;;;;;;;;;6.05;100.00;98988.69;5112742;28;934;-61
2023/03/16 07:40:58;;;;;;;;;;;;;;;6.09;100.00;98994.19;5112802;28;815;-61
2023/03/16 07:43:24;;;;;;;;;;;;;;;6.10;100.00;98990.28;5112735;28;842;-61
2023/03/16 07:45:52;;;;;;;;;;;;;;;6.06;100.00;99003.19;5112958;28;819;-62
2023/03/16 07:48:19;;;;;;;;;;;;;;;6.02;100.00;98995.00;5112612;28;969;-62
2023/03/16 07:50:49;;;;;;;;;;;;;;;5.99;100.00;99006.72;5112536;28;1898;-61
2023/03/16 07:53:16;;;;;;;;;;;;;;;5.98;100.00;98999.69;5112582;28;890;-61
2023/03/16 07:55:43;;;;;;;;;;;;;;;5.96;100.00;98993.81;5112654;28;866;-61
2023/03/16 07:58:10;;;;;;;;;;;;;;;5.90;100.00;99001.59;5112478;28;831;-62
2023/03/16 08:00:37;;;;;;;;;;;;;;;5.87;100.00;98999.66;5112771;28;795;-61
2023/03/16 08:03:03;;;;;;;;;;;;;;;5.88;100.00;99019.63;5112381;28;787;-61
2023/03/16 08:05:31;;;;;;;;;;;;;;;5.87;100.00;99004.34;5112398;28;882;-61
2023/03/16 08:07:58;;;;;;;;;;;;;;;5.88;100.00;99017.66;5112312;28;1062;-62
2023/03/16 08:10:25;;;;;;;;;;;;;;;5.89;100.00;99012.97;5112033;28;1193;-61
2023/03/16 08:12:52;;;;;;;;;;;;;;;5.91;100.00;99014.16;5111399;28;1922;-60
2023/03/16 08:15:18;;;;;;;;;;;;;;;5.92;100.00;99001.22;5112176;28;830;-61
2023/03/16 08:17:45;;;;;;;;;;;;;;;5.94;100.00;99018.06;5112081;28;878;-62
2023/03/16 08:20:13;;;;;;;;;;;;;;;5.98;100.00;99018.09;5112079;28;859;-61
2023/03/16 08:22:41;;;;;;;;;;;;;;;6.01;100.00;99028.28;5112126;28;843;-67
2023/03/16 08:25:10;;;;;;;;;;;;;;;6.02;100.00;99027.13;5112012;28;835;-67
2023/03/16 08:27:37;;;;;;;;;;;;;;;6.03;100.00;99029.47;5110785;28;1309;-67
2023/03/16 08:30:05;;;;;;;;;;;;;;;6.05;100.00;99027.13;5112308;28;932;-66
2023/03/16 08:32:32;;;;;;;;;;;;;;;6.13;100.00;99033.41;5112003;28;1964;-66
2023/03/16 08:34:59;;;;;;;;;;;;;;;6.13;100.00;99038.88;5111982;28;827;-64
2023/03/16 08:37:26;;;;;;;;;;;;;;;6.11;100.00;99028.28;5112129;28;851;-65
2023/03/16 08:39:53;;;;;;;;;;;;;;;6.09;100.00;99018.91;5111957;28;822;-64
2023/03/16 08:42:19;;;;;;;;;;;;;;;6.10;100.00;99040.47;5111881;28;889;-65
2023/03/16 08:44:47;;;;;;;;;;;;;;;6.11;100.00;99042.00;5111887;28;925;-65
2023/03/16 08:47:18;;;;;;;;;;;;;;;6.11;100.00;99035.75;5111749;28;815;-65
2023/03/16 08:49:44;;;;;;;;;;;;;;;6.07;100.00;99038.47;5111857;28;906;-64
2023/03/16 08:52:11;;;;;;;;;;;;;;;6.04;100.00;99042.03;5111695;28;1898;-65
2023/03/16 08:54:37;;;;;;;;;;;;;;;6.05;100.00;99040.81;5110519;28;1359;-64
2023/03/16 08:57:04;;;;;;;;;;;;;;;6.09;100.00;99049.06;5112047;28;807;-65
2023/03/16 08:59:31;;;;;;;;;;;;;;;6.11;100.00;99055.72;5111776;28;827;-65
2023/03/16 09:01:57;;;;;;;;;;;;;;;6.14;100.00;99045.94;5111764;28;894;-64
2023/03/16 09:04:23;;;;;;;;;;;;;;;6.13;100.00;99045.16;5110399;28;1309;-64
2023/03/16 09:06:52;;;;;;;;;;;;;;;6.09;100.00;99052.59;5111653;28;1101;-64
2023/03/16 09:09:20;;;;;;;;;;;;;;;6.10;100.00;99056.91;5111568;28;1461;-66
2023/03/16 09:11:48;;;;;;;;;;;;;;;6.06;100.00;99058.06;5110067;28;1996;-63
2023/03/16 09:14:15;;;;;;;;;;;;;;;5.99;100.00;99063.56;5110279;28;1284;-61
2023/03/16 09:16:43;;;;;;;;;;;;;;;5.87;100.00;99072.91;5111409;28;871;-61
2023/03/16 09:19:10;;;;;;;;;;;;;;;5.80;100.00;99065.44;5111578;28;799;-62
2023/03/16 09:21:38;;;;;;;;;;;;;;;5.75;100.00;99074.06;5111560;28;926;-62
2023/03/16 09:24:06;;;;;;;;;;;;;;;5.71;100.00;99089.72;5114529;28;843;-64
2023/03/16 09:26:34;;;;;;;;;;;;;;;5.72;100.00;99083.84;5115606;28;866;-63
2023/03/16 09:29:01;;;;;;;;;;;;;;;5.75;100.00;99082.28;5115651;28;815;-62
2023/03/16 09:31:27;;;;;;;;;;;;;;;5.67;100.00;99077.94;5115533;28;1915;-63
2023/03/16 09:33:54;;;;;;;;;;;;;;;5.62;100.00;99094.78;5115538;28;840;-62
2023/03/16 09:36:20;;;;;;;;;;;;;;;5.60;100.00;99094.38;5115732;28;823;-62
2023/03/16 09:38:47;;;;;;;;;;;;;;;5.56;100.00;99074.38;5115893;28;843;-61
2023/03/16 10:10:02;;;;;;;;;;;;;;;5.58;100.00;99108.47;5386750;22;1646;-57
2023/03/16 10:12:31;;;;;;;;;;;;;;;5.59;100.00;99122.94;5094266;28;1910;-57
2023/03/16 10:14:58;;;;;;;;;;;;;;;5.61;100.00;99106.91;5094263;28;893;-59
2023/03/16 10:17:36;;;;;;;;;;;;;;;5.60;100.00;99130.00;5094320;28;862;-58
2023/03/16 10:20:07;;;;;;;;;;;;;;;5.65;100.00;99118.66;5094747;28;875;-58
2023/03/16 10:22:36;;;;;;;;;;;;;;;5.65;100.00;99129.63;5093955;28;827;-59
2023/03/16 10:25:11;;;;;;;;;;;;;;;5.68;100.00;99123.41;5093870;28;824;-58
2023/03/16 10:27:42;;;;;;;;;;;;;;;5.70;100.00;99121.06;5093844;28;858;-59
2023/03/16 10:30:20;;;;;;;;;;;;;;;5.73;100.00;99125.75;5093741;28;1018;-59
2023/03/16 10:32:48;;;;;;;;;;;;;;;5.77;100.00;99126.56;5093618;28;1878;-59
2023/03/16 10:35:47;;;;;;;;;;;;;;;5.81;100.00;99112.88;5092853;28;851;-60
2023/03/16 10:38:49;;;;;;;;;;;;;;;5.91;100.00;99106.59;5049240;28;1316;-59
2023/03/16 10:41:19;;;;;;;;;;;;;;;5.95;100.00;99112.91;5011478;28;1189;-59
2023/03/16 10:43:46;;;;;;;;;;;;;;;5.99;100.00;99129.38;5011550;28;1144;-60
2023/03/16 10:46:12;;;;;;;;;;;;;;;5.96;100.00;99116.47;5011317;28;1180;-60
2023/03/16 10:48:39;;;;;;;;;;;;;;;5.81;100.00;99119.13;5011467;28;1068;-59
2023/03/16 10:51:12;;;;;;;;;;;;;;;5.80;100.00;99117.53;5011301;28;1922;-60
2023/03/16 10:53:43;;;;;;;;;;;;;;;5.71;100.00;99117.13;5011390;28;871;-59
2023/03/16 10:56:32;;;;;;;;;;;;;;;5.60;100.00;99116.31;5011378;28;915;-59
2023/03/16 10:58:59;;;;;;;;;;;;;;;5.45;100.00;99108.00;5011542;28;883;-58
2023/03/16 11:01:27;;;;;;;;;;;;;;;5.45;100.00;99113.50;5011183;28;903;-58
2023/03/16 11:03:56;;;;;;;;;;;;;;;5.39;100.00;99123.25;5011161;28;876;-58
2023/03/16 11:06:24;;;;;;;;;;;;;;;5.39;100.00;99114.25;5011177;28;899;-58
2023/03/16 11:08:53;;;;;;;;;;;;;;;5.39;100.00;99111.50;5010429;28;1462;-59
2023/03/16 11:11:31;;;;;;;;;;;;;;;5.45;100.00;99120.94;5010929;28;1922;-60
2023/03/16 11:14:04;;;;;;;;;;;;;;;5.52;100.00;99108.03;5011129;28;1204;-59
2023/03/16 11:16:37;;;;;;;;;;;;;;;5.53;100.00;99115.09;5092835;28;862;-59
2023/03/16 11:19:13;;;;;;;;;;;;;;;5.50;100.00;99126.03;5092844;28;855;-59
2023/03/16 11:21:55;;;;;;;;;;;;;;;5.41;100.00;99112.69;5093044;28;970;-59
2023/03/16 11:24:41;;;;;;;;;;;;;;;5.35;100.00;99113.44;5092735;28;894;-59
2023/03/16 11:27:17;;;;;;;;;;;;;;;5.32;100.00;99115.78;5092614;28;1065;-59
2023/03/16 11:30:08;;;;;;;;;;;;;;;5.29;100.00;99123.97;5092812;28;887;-59
2023/03/16 11:32:36;;;;;;;;;;;;;;;5.23;100.00;99109.09;5055745;28;1953;-59
2023/03/16 11:35:11;;;;;;;;;;;;;;;5.19;100.00;99117.28;5092894;28;918;-59
2023/03/16 11:37:50;;;;;;;;;;;;;;;5.17;100.00;99122.34;5092690;28;839;-59
2023/03/16 11:40:23;;;;;;;;;;;;;;;5.23;100.00;99128.28;5092329;28;871;-58
2023/03/16 11:43:08;;;;;;;;;;;;;;;5.23;100.00;99139.22;5092433;28;898;-58
2023/03/16 11:45:44;;;;;;;;;;;;;;;5.14;100.00;99125.06;5074069;28;871;-59
2023/03/16 11:48:35;;;;;;;;;;;;;;;5.07;100.00;99128.56;5092345;28;840;-58
2023/03/16 11:51:02;;;;;;;;;;;;;;;4.99;100.00;99121.44;5055162;28;1941;-59
2023/03/16 11:53:38;;;;;;;;;;;;;;;4.89;100.00;99142.13;5092246;28;831;-59
2023/03/16 11:56:04;;;;;;;;;;;;;;;4.82;100.00;99140.13;5092181;28;1034;-58
2023/03/16 11:58:39;;;;;;;;;;;;;;;4.80;100.00;99130.69;5092161;28;823;-59
2023/03/16 12:01:12;;;;;;;;;;;;;;;4.77;100.00;99150.63;5092008;28;927;-59
2023/03/16 12:03:44;;;;;;;;;;;;;;;4.78;100.00;99124.81;5092094;28;811;-59
2023/03/16 12:06:34;;;;;;;;;;;;;;;4.76;100.00;99132.63;5091879;28;922;-57
2023/03/16 12:09:16;;;;;;;;;;;;;;;4.75;100.00;99142.03;5081250;28;1754;-59
2023/03/16 12:11:56;;;;;;;;;;;;;;;4.72;100.00;99140.84;5092239;28;1980;-57
2023/03/16 12:14:32;;;;;;;;;;;;;;;4.70;100.00;99129.47;5091940;28;843;-59
2023/03/16 12:17:02;;;;;;;;;;;;;;;4.69;100.00;99147.03;5092638;28;826;-59
2023/03/16 12:19:43;;;;;;;;;;;;;;;4.64;100.00;99159.13;5091874;28;843;-59
2023/03/16 12:22:10;;;;;;;;;;;;;;;4.66;100.00;99154.06;5091789;28;843;-59
2023/03/16 12:24:41;;;;;;;;;;;;;;;4.68;100.00;99154.47;5091719;28;881;-60
2023/03/16 12:27:14;;;;;;;;;;;;;;;4.66;100.00;99150.56;5091949;28;831;-60
2023/03/16 12:29:47;;;;;;;;;;;;;;;4.67;100.00;99165.81;5091795;28;866;-60
2023/03/16 12:32:29;;;;;;;;;;;;;;;4.61;100.00;99159.09;5091601;28;1943;-59
2023/03/16 12:35:16;;;;;;;;;;;;;;;4.54;100.00;99175.47;5091723;28;879;-60
2023/03/16 12:38:06;;;;;;;;;;;;;;;4.53;100.00;99185.63;5050420;28;1201;-60
2023/03/16 12:40:33;;;;;;;;;;;;;;;4.48;100.00;99185.97;5091312;28;2098;-60
2023/03/16 12:43:02;;;;;;;;;;;;;;;4.41;100.00;99205.06;5091604;28;823;-59
2023/03/16 12:45:36;;;;;;;;;;;;;;;4.33;100.00;99204.19;5091642;28;827;-59
2023/03/16 12:48:21;;;;;;;;;;;;;;;4.35;100.00;99190.13;5091433;28;887;-58
2023/03/16 12:50:51;;;;;;;;;;;;;;;4.32;100.00;99210.03;5091392;28;926;-59
2023/03/16 12:53:37;;;;;;;;;;;;;;;4.29;100.00;99206.13;5091293;28;1949;-58
2023/03/16 12:56:05;;;;;;;;;;;;;;;4.23;100.00;99208.38;5091478;28;844;-58
2023/03/16 12:58:32;;;;;;;;;;;;;;;4.27;100.00;99214.69;5092901;28;847;-58
2023/03/16 13:00:59;;;;;;;;;;;;;;;4.24;100.00;99222.84;5095552;28;843;-58
2023/03/16 13:03:27;;;;;;;;;;;;;;;4.24;100.00;99218.16;5095414;28;894;-58
2023/03/16 13:05:58;;;;;;;;;;;;;;;4.20;100.00;99222.78;5095479;28;949;-58
2023/03/16 13:08:26;;;;;;;;;;;;;;;4.21;100.00;99229.88;5095833;28;984;-60
2023/03/16 13:11:19;;;;;;;;;;;;;;;4.18;100.00;99216.94;5095223;28;1543;-61
2023/03/16 13:14:01;;;;;;;;;;;;;;;4.21;100.00;99223.59;5091885;28;1240;-61
2023/03/16 13:16:30;;;;;;;;;;;;;;;4.20;100.00;99232.97;5095528;28;854;-60
2023/03/16 13:18:57;;;;;;;;;;;;;;;4.13;100.00;99233.66;5095179;28;866;-60
2023/03/16 13:21:36;;;;;;;;;;;;;;;4.16;100.00;99246.63;5095166;28;804;-60
2023/03/16 13:24:23;;;;;;;;;;;;;;;4.12;100.00;99239.50;5095083;28;919;-61
2023/03/16 13:26:52;;;;;;;;;;;;;;;4.09;100.00;99252.75;5053979;28;1096;-63
2023/03/16 13:29:21;;;;;;;;;;;;;;;4.08;100.00;99247.69;5094972;28;874;-61
2023/03/16 13:31:48;;;;;;;;;;;;;;;4.09;100.00;99251.97;5094900;28;1882;-61
2023/03/16 13:34:19;;;;;;;;;;;;;;;4.07;100.00;99251.56;5094913;28;835;-62
2023/03/16 13:36:45;;;;;;;;;;;;;;;4.05;100.00;99251.97;5095535;28;792;-61
2023/03/16 13:39:21;;;;;;;;;;;;;;;4.02;100.00;99225.34;5095168;28;823;-62
2023/03/16 13:42:03;;;;;;;;;;;;;;;4.01;100.00;99261.25;5094807;28;898;-61
2023/03/16 13:44:30;;;;;;;;;;;;;;;4.00;100.00;99260.47;5094739;28;879;-61
2023/03/16 13:47:01;;;;;;;;;;;;;;;4.00;100.00;99268.66;5094694;28;838;-60